Time;durP1;ratioP1;P1;durP2;ratioP2;P2;SDS_P1;SDS_P2;PMS_P1;PMS_P2;Temp;Humidity;BMP_temperature;BMP_pressure;BME280_temperature;BME280_humidity;BME280_pressure;Samples;Min_cycle;Max_cycle;Signal;HPM_P1;HPM_P2
2021/11/23 00:00:50;;;;;;;5.80;3.67;;;21.00;50.70;;;;;;4269036;27;20047;-76
2021/11/23 00:02:54;;;;;;;4.57;3.10;;;21.00;50.70;;;;;;4254918;27;20055;-72
2021/11/23 00:04:59;;;;;;;6.07;3.53;;;20.90;50.60;;;;;;4263268;27;20050;-77
2021/11/23 00:07:02;;;;;;;5.30;3.63;;;20.90;50.80;;;;;;4259911;27;20054;-70
2021/11/23 00:09:05;;;;;;;5.32;3.55;;;20.80;50.70;;;;;;4257796;27;20051;-78
2021/11/23 00:11:09;;;;;;;5.63;3.53;;;20.80;50.70;;;;;;4267156;27;20066;-76
2021/11/23 00:13:14;;;;;;;5.25;3.47;;;20.80;50.60;;;;;;4238632;28;20055;-77
2021/11/23 00:15:17;;;;;;;5.57;3.60;;;20.70;50.80;;;;;;4261090;27;20053;-78
2021/11/23 00:17:20;;;;;;;4.18;3.00;;;20.70;50.80;;;;;;4261892;27;20277;-78
2021/11/23 00:19:23;;;;;;;3.67;3.08;;;20.70;50.90;;;;;;4255821;27;20080;-78
2021/11/23 00:21:28;;;;;;;4.20;3.53;;;20.70;51.00;;;;;;4264343;27;20402;-78
2021/11/23 00:23:31;;;;;;;5.47;3.53;;;20.60;50.80;;;;;;4254357;27;20049;-78
2021/11/23 00:25:34;;;;;;;4.55;3.70;;;20.60;51.00;;;;;;4260846;27;20104;-77
2021/11/23 00:27:37;;;;;;;6.03;3.97;;;20.50;50.80;;;;;;4267811;27;20050;-78
2021/11/23 00:29:41;;;;;;;4.82;3.90;;;20.50;51.00;;;;;;4272884;27;20272;-76
2021/11/23 00:31:44;;;;;;;6.00;3.80;;;20.50;51.10;;;;;;4267619;27;20050;-78
2021/11/23 00:33:47;;;;;;;6.22;4.00;;;20.40;51.00;;;;;;4256121;27;20213;-78
2021/11/23 00:35:50;;;;;;;6.03;4.10;;;20.40;51.00;;;;;;4262131;27;20051;-78
2021/11/23 00:37:56;;;;;;;5.80;4.50;;;20.40;51.30;;;;;;4263556;27;20042;-78
2021/11/23 00:39:59;;;;;;;7.25;4.40;;;20.30;51.30;;;;;;4257296;27;20055;-78
2021/11/23 00:42:03;;;;;;;7.53;4.90;;;20.30;51.30;;;;;;4268349;27;20055;-78
2021/11/23 00:44:07;;;;;;;8.00;4.82;;;20.20;51.40;;;;;;4255391;27;20051;-78
2021/11/23 00:46:10;;;;;;;7.47;5.50;;;20.20;52.00;;;;;;4260729;27;20042;-77
2021/11/23 00:48:13;;;;;;;8.30;5.50;;;20.20;51.30;;;;;;4261391;27;20047;-79
2021/11/23 00:50:16;;;;;;;8.00;6.10;;;20.10;51.30;;;;;;4252601;27;20328;-78
2021/11/23 00:52:19;;;;;;;9.57;6.43;;;20.10;51.40;;;;;;4268252;27;20051;-78
2021/11/23 00:54:24;;;;;;;8.18;6.07;;;20.10;51.50;;;;;;4254307;27;20058;-78
2021/11/23 00:56:27;;;;;;;8.55;6.03;;;20.10;51.50;;;;;;4258745;27;20080;-77
2021/11/23 00:58:30;;;;;;;9.40;6.63;;;20.00;51.50;;;;;;4261916;27;20061;-76
2021/11/23 01:00:34;;;;;;;8.73;5.97;;;20.00;51.70;;;;;;4254193;27;20100;-78
2021/11/23 01:02:38;;;;;;;8.85;6.03;;;19.90;51.50;;;;;;4259714;27;20552;-76
2021/11/23 01:04:40;;;;;;;8.23;5.78;;;19.90;51.60;;;;;;4272036;27;20092;-78
2021/11/23 01:06:45;;;;;;;10.90;6.28;;;19.90;51.60;;;;;;4264748;27;20260;-76
2021/11/23 01:08:48;;;;;;;;;;;19.90;51.80;;;;;;4243177;27;20051;-78
2021/11/23 01:10:52;;;;;;;10.30;5.97;;;19.90;52.00;;;;;;4255391;27;19926;-77
2021/11/23 01:12:56;;;;;;;7.25;5.35;;;19.80;51.70;;;;;;4257295;27;20261;-78
2021/11/23 01:14:59;;;;;;;8.88;6.38;;;19.80;51.70;;;;;;4271684;27;20429;-78
2021/11/23 01:17:02;;;;;;;8.85;5.63;;;19.70;52.40;;;;;;4265809;27;20054;-78
2021/11/23 01:19:07;;;;;;;8.02;5.90;;;19.70;51.90;;;;;;4263871;27;20095;-79
2021/11/23 01:21:13;;;;;;;8.00;5.70;;;19.70;51.70;;;;;;4275079;27;20103;-78
2021/11/23 01:23:17;;;;;;;8.45;5.28;;;19.70;52.00;;;;;;4260238;27;20055;-77
2021/11/23 01:25:20;;;;;;;7.60;5.57;;;19.60;52.00;;;;;;4272182;27;20054;-78
2021/11/23 01:27:24;;;;;;;7.28;5.72;;;19.60;52.10;;;;;;4267612;27;20493;-78
2021/11/23 01:29:27;;;;;;;8.27;5.47;;;19.60;52.10;;;;;;4254245;27;20059;-77
2021/11/23 01:31:30;;;;;;;8.77;5.20;;;19.50;52.10;;;;;;4253620;27;20327;-75
2021/11/23 01:33:33;;;;;;;7.50;4.90;;;19.50;51.90;;;;;;4264444;27;20077;-78
2021/11/23 01:35:36;;;;;;;6.68;4.57;;;19.50;52.00;;;;;;4256048;27;20055;-78
2021/11/23 01:37:41;;;;;;;7.38;5.00;;;19.50;52.20;;;;;;4258459;27;20292;-79
2021/11/23 01:39:44;;;;;;;7.18;4.50;;;19.40;52.10;;;;;;4262503;27;20096;-78
2021/11/23 01:41:47;;;;;;;7.97;5.35;;;19.40;52.00;;;;;;4253146;27;20091;-78
2021/11/23 01:43:52;;;;;;;7.82;4.88;;;19.40;52.00;;;;;;4267935;27;20088;-78
2021/11/23 01:45:55;;;;;;;9.60;4.85;;;19.40;52.20;;;;;;4254010;27;20088;-78
2021/11/23 01:47:57;;;;;;;9.35;5.88;;;19.40;52.30;;;;;;4259434;27;20058;-78
2021/11/23 01:50:01;;;;;;;7.60;6.53;;;19.30;52.10;;;;;;4263123;27;20099;-78
2021/11/23 01:52:05;;;;;;;7.68;6.15;;;19.30;52.40;;;;;;4251689;27;20104;-78
2021/11/23 01:54:08;;;;;;;;;;;19.30;52.40;;;;;;4258464;27;20051;-79
2021/11/23 01:56:11;;;;;;;8.25;6.00;;;19.30;52.50;;;;;;4270970;27;19914;-72
2021/11/23 01:58:15;;;;;;;12.10;7.25;;;19.30;52.30;;;;;;4267582;27;20046;-78
2021/11/23 02:00:19;;;;;;;8.50;5.90;;;19.20;52.40;;;;;;4260929;27;20051;-78
2021/11/23 02:02:22;;;;;;;8.02;5.88;;;19.20;52.50;;;;;;4268798;27;20479;-78
2021/11/23 02:04:25;;;;;;;7.13;5.93;;;19.20;52.50;;;;;;4261932;27;20047;-78
2021/11/23 02:06:29;;;;;;;8.23;6.13;;;19.20;52.50;;;;;;4272084;27;20051;-77
2021/11/23 02:08:32;;;;;;;7.72;5.65;;;19.20;52.60;;;;;;4268663;27;20058;-78
2021/11/23 02:10:35;;;;;;;6.25;5.30;;;19.10;52.50;;;;;;4265694;27;20051;-77
2021/11/23 02:12:39;;;;;;;8.07;5.55;;;19.10;52.50;;;;;;4253726;27;20058;-78
2021/11/23 02:14:43;;;;;;;7.47;5.82;;;19.10;52.50;;;;;;4263496;27;20100;-77
2021/11/23 02:16:47;;;;;;;6.35;5.07;;;19.10;52.50;;;;;;4256640;27;20104;-78
2021/11/23 02:18:51;;;;;;;7.15;5.53;;;19.00;52.50;;;;;;4256082;27;20047;-79
2021/11/23 02:20:55;;;;;;;6.95;5.78;;;19.10;52.60;;;;;;4262924;27;20048;-79
2021/11/23 02:22:59;;;;;;;6.43;5.40;;;19.00;52.40;;;;;;4253729;27;20047;-79
2021/11/23 02:25:02;;;;;;;7.10;5.90;;;19.00;52.60;;;;;;4263842;27;20342;-80
2021/11/23 02:27:05;;;;;;;6.65;5.70;;;19.00;52.30;;;;;;4255655;27;20047;-78
2021/11/23 02:29:08;;;;;;;6.93;5.20;;;19.00;52.60;;;;;;4259411;27;20043;-77
2021/11/23 02:31:11;;;;;;;9.35;6.30;;;19.00;52.40;;;;;;4260724;27;20064;-71
2021/11/23 02:33:16;;;;;;;10.48;7.18;;;19.00;52.40;;;;;;4272514;27;20050;-79
2021/11/23 02:35:21;;;;;;;9.95;7.35;;;19.00;52.50;;;;;;4261999;27;20047;-73
2021/11/23 02:37:26;;;;;;;9.98;6.85;;;19.00;52.40;;;;;;4269086;27;20099;-77
2021/11/23 02:39:29;;;;;;;7.72;6.38;;;19.00;52.50;;;;;;4269329;27;20818;-73
2021/11/23 02:41:32;;;;;;;8.73;6.20;;;18.90;52.50;;;;;;4258923;27;20120;-79
2021/11/23 02:43:36;;;;;;;6.10;4.93;;;18.90;52.60;;;;;;4269416;27;20050;-76
2021/11/23 02:45:39;;;;;;;7.17;5.47;;;18.90;52.50;;;;;;4267380;27;20228;-78
2021/11/23 02:47:42;;;;;;;6.75;5.45;;;18.90;52.50;;;;;;4273685;27;20058;-74
2021/11/23 02:49:47;;;;;;;5.90;5.22;;;18.90;52.50;;;;;;4266490;27;20285;-70
2021/11/23 02:51:50;;;;;;;5.15;4.65;;;18.80;53.00;;;;;;4258662;27;20091;-76
2021/11/23 02:53:54;;;;;;;6.45;5.07;;;18.80;52.50;;;;;;4272191;27;20432;-78
2021/11/23 02:55:59;;;;;;;6.32;4.68;;;18.80;52.40;;;;;;4258201;27;20101;-79
2021/11/23 02:58:05;;;;;;;6.30;4.72;;;18.80;52.40;;;;;;4267351;27;20103;-70
2021/11/23 03:00:11;;;;;;;7.47;4.80;;;18.80;52.40;;;;;;4269582;27;20260;-67
2021/11/23 03:02:15;;;;;;;5.78;4.35;;;18.70;52.50;;;;;;4259352;27;20039;-78
2021/11/23 03:04:18;;;;;;;7.10;4.60;;;18.70;52.30;;;;;;4268646;27;20103;-78
2021/11/23 03:06:22;;;;;;;7.60;4.32;;;18.70;52.40;;;;;;4260939;27;20047;-77
2021/11/23 03:08:26;;;;;;;6.07;4.57;;;18.70;52.60;;;;;;4269587;27;20331;-76
2021/11/23 03:10:31;;;;;;;5.65;4.50;;;18.70;52.60;;;;;;4248257;27;20100;-78
2021/11/23 03:12:35;;;;;;;4.60;4.18;;;18.70;52.60;;;;;;4259433;27;20080;-76
2021/11/23 03:14:38;;;;;;;5.57;4.40;;;18.60;52.40;;;;;;4271163;27;20122;-77
2021/11/23 03:16:41;;;;;;;4.75;3.95;;;18.60;52.70;;;;;;4260321;27;20104;-78
2021/11/23 03:18:44;;;;;;;5.82;4.82;;;18.50;52.50;;;;;;4266823;27;20507;-78
2021/11/23 03:20:47;;;;;;;5.53;4.07;;;18.60;52.70;;;;;;4268864;27;20076;-78
2021/11/23 03:22:51;;;;;;;4.35;3.63;;;18.50;52.50;;;;;;4258212;27;20115;-75
2021/11/23 03:24:54;;;;;;;3.95;3.45;;;18.50;52.80;;;;;;4270838;27;20055;-66
2021/11/23 03:26:59;;;;;;;5.60;3.45;;;18.40;52.60;;;;;;4258688;27;20051;-75
2021/11/23 03:29:02;;;;;;;5.05;3.70;;;18.40;52.80;;;;;;4269815;27;20103;-68
2021/11/23 03:31:05;;;;;;;6.90;4.00;;;18.40;52.60;;;;;;4273254;27;20066;-78
2021/11/23 03:33:09;;;;;;;5.60;3.65;;;18.30;52.90;;;;;;4264100;27;20054;-77
2021/11/23 03:35:13;;;;;;;4.15;3.53;;;18.30;52.90;;;;;;4273835;27;20050;-73
2021/11/23 03:37:20;;;;;;;5.35;3.55;;;18.30;52.90;;;;;;4262400;27;20092;-76
2021/11/23 03:39:23;;;;;;;4.63;3.78;;;18.20;52.70;;;;;;4271862;27;20280;-77
2021/11/23 03:41:26;;;;;;;6.68;4.05;;;18.20;53.00;;;;;;4270534;27;20076;-78
2021/11/23 03:43:30;;;;;;;5.43;3.88;;;18.10;52.90;;;;;;4256259;27;20350;-77
2021/11/23 03:45:35;;;;;;;7.45;3.97;;;18.10;52.90;;;;;;4255869;27;20051;-65
2021/11/23 03:47:38;;;;;;;4.72;3.45;;;18.10;52.80;;;;;;4265554;27;20107;-67
2021/11/23 03:49:42;;;;;;;5.15;3.80;;;18.00;53.00;;;;;;4260765;27;20062;-69
2021/11/23 03:51:45;;;;;;;4.40;3.45;;;18.00;52.90;;;;;;4258708;27;21004;-76
2021/11/23 03:53:48;;;;;;;4.45;3.65;;;18.00;53.00;;;;;;4269005;27;20100;-68
2021/11/23 03:55:52;;;;;;;4.50;3.60;;;17.90;53.00;;;;;;4254641;27;20051;-77
2021/11/23 03:57:57;;;;;;;4.65;3.35;;;17.90;53.10;;;;;;4258235;27;20055;-68
2021/11/23 04:00:01;;;;;;;;;;;17.90;53.20;;;;;;4271911;27;20051;-64
2021/11/23 04:02:04;;;;;;;4.85;3.72;;;17.80;53.40;;;;;;4270542;27;19915;-79
2021/11/23 04:04:08;;;;;;;4.30;3.40;;;17.70;53.40;;;;;;4261868;27;20276;-73
2021/11/23 04:06:10;;;;;;;4.55;3.35;;;17.70;53.40;;;;;;4271972;27;20059;-78
2021/11/23 04:08:13;;;;;;;5.00;3.45;;;17.60;53.40;;;;;;4262763;27;20077;-68
2021/11/23 04:10:17;;;;;;;4.70;3.22;;;17.60;53.30;;;;;;4271240;27;20091;-75
2021/11/23 04:12:20;;;;;;;5.90;3.50;;;17.60;53.50;;;;;;4272458;27;20073;-78
2021/11/23 04:14:23;;;;;;;5.60;3.67;;;17.60;53.50;;;;;;4261510;27;20050;-78
2021/11/23 04:16:27;;;;;;;5.55;3.75;;;17.60;53.60;;;;;;4274293;27;20100;-78
2021/11/23 04:18:31;;;;;;;5.47;3.75;;;17.50;53.60;;;;;;4268692;27;20339;-75
2021/11/23 04:20:33;;;;;;;5.00;3.17;;;17.40;53.50;;;;;;4261102;27;20063;-78
2021/11/23 04:22:38;;;;;;;4.30;3.40;;;17.40;53.70;;;;;;4257778;27;20047;-77
2021/11/23 04:24:41;;;;;;;6.15;3.70;;;17.30;53.80;;;;;;4268805;27;20166;-78
2021/11/23 04:26:44;;;;;;;6.63;3.47;;;17.30;53.90;;;;;;4237854;27;20058;-78
2021/11/23 04:28:47;;;;;;;4.15;3.40;;;17.30;53.80;;;;;;4267135;27;20055;-78
2021/11/23 04:30:50;;;;;;;4.30;3.55;;;17.30;53.90;;;;;;4260194;27;20051;-78
2021/11/23 04:32:54;;;;;;;5.82;3.80;;;17.20;53.90;;;;;;4252679;27;20055;-76
2021/11/23 04:34:57;;;;;;;6.30;4.25;;;17.20;54.00;;;;;;4265567;27;20047;-78
2021/11/23 04:37:00;;;;;;;5.65;3.60;;;17.10;54.00;;;;;;4255544;27;20050;-77
2021/11/23 04:39:04;;;;;;;6.15;3.75;;;17.10;54.00;;;;;;4261099;27;20053;-78
2021/11/23 04:41:10;;;;;;;6.40;3.33;;;17.10;54.00;;;;;;4260421;27;20285;-72
2021/11/23 04:43:14;;;;;;;4.93;3.17;;;17.10;54.20;;;;;;4240042;27;20062;-76
2021/11/23 04:45:17;;;;;;;5.53;3.33;;;17.00;54.20;;;;;;4268258;27;20110;-79
2021/11/23 04:47:20;;;;;;;4.32;3.40;;;17.00;54.20;;;;;;4270741;27;20403;-77
2021/11/23 04:49:24;;;;;;;4.40;3.28;;;17.00;54.20;;;;;;4264929;27;20088;-78
2021/11/23 04:51:27;;;;;;;4.97;3.60;;;16.90;54.20;;;;;;4267069;27;20047;-78
2021/11/23 04:53:30;;;;;;;4.50;3.22;;;16.90;54.40;;;;;;4270702;27;20055;-78
2021/11/23 04:55:33;;;;;;;4.95;3.22;;;16.80;54.40;;;;;;4271514;27;20049;-77
2021/11/23 04:57:36;;;;;;;4.95;3.63;;;16.80;54.50;;;;;;4255015;27;20051;-77
2021/11/23 04:59:39;;;;;;;4.10;3.05;;;16.80;54.40;;;;;;4256267;27;20419;-73
2021/11/23 05:01:42;;;;;;;5.15;3.30;;;16.70;54.50;;;;;;4264497;27;20050;-69
2021/11/23 05:03:45;;;;;;;4.53;3.15;;;16.70;54.60;;;;;;4270756;27;20076;-73
2021/11/23 05:05:49;;;;;;;4.80;3.50;;;16.70;54.60;;;;;;4258652;27;20055;-78
2021/11/23 05:07:52;;;;;;;4.70;3.60;;;16.70;54.70;;;;;;4272792;27;20047;-75
2021/11/23 05:09:55;;;;;;;3.78;3.17;;;16.60;54.70;;;;;;4263271;27;20452;-77
2021/11/23 05:11:58;;;;;;;5.05;2.97;;;16.60;54.80;;;;;;4240192;27;20053;-73
2021/11/23 05:14:02;;;;;;;4.07;3.13;;;16.50;54.80;;;;;;4253850;27;20342;-77
2021/11/23 05:16:05;;;;;;;4.95;3.35;;;16.50;54.90;;;;;;4257702;27;20063;-65
2021/11/23 05:18:08;;;;;;;5.38;3.55;;;16.50;55.00;;;;;;4272193;27;20055;-74
2021/11/23 05:20:12;;;;;;;7.03;3.47;;;16.50;55.00;;;;;;4265673;27;20116;-79
2021/11/23 05:22:16;;;;;;;4.68;2.97;;;16.40;55.00;;;;;;4262861;27;20394;-77
2021/11/23 05:24:19;;;;;;;6.65;3.58;;;16.40;55.10;;;;;;4271046;27;20517;-73
2021/11/23 05:26:22;;;;;;;6.15;3.60;;;16.40;55.10;;;;;;4256256;27;20393;-78
2021/11/23 05:28:25;;;;;;;4.28;3.38;;;16.30;55.10;;;;;;4269087;27;20439;-68
2021/11/23 05:30:29;;;;;;;5.00;3.00;;;16.30;55.20;;;;;;4266702;27;20095;-69
2021/11/23 05:32:32;;;;;;;4.55;3.40;;;16.30;55.80;;;;;;4263302;27;20107;-78
2021/11/23 05:34:34;;;;;;;6.35;3.47;;;16.30;55.20;;;;;;4272959;27;20343;-76
2021/11/23 05:36:37;;;;;;;5.60;3.40;;;16.30;55.30;;;;;;4269935;27;20284;-77
2021/11/23 05:38:42;;;;;;;5.10;3.47;;;16.30;55.20;;;;;;4254587;27;20100;-77
2021/11/23 05:40:45;;;;;;;5.10;3.60;;;16.20;55.20;;;;;;4257702;27;20074;-75
2021/11/23 05:42:50;;;;;;;5.03;3.22;;;16.20;55.30;;;;;;4263199;27;20047;-78
2021/11/23 05:44:53;;;;;;;4.95;3.45;;;16.20;55.30;;;;;;4233091;28;20101;-76
2021/11/23 05:46:56;;;;;;;5.40;3.42;;;16.10;55.30;;;;;;4266086;27;20091;-77
2021/11/23 05:48:59;;;;;;;6.25;3.72;;;16.10;55.40;;;;;;4269078;27;20382;-77
2021/11/23 05:51:05;;;;;;;4.97;3.40;;;16.10;55.50;;;;;;4265601;27;20055;-76
2021/11/23 05:53:08;;;;;;;5.22;3.83;;;16.00;55.40;;;;;;4263719;27;20099;-77
2021/11/23 05:55:13;;;;;;;5.65;4.15;;;16.00;55.40;;;;;;4268851;27;20062;-78
2021/11/23 05:57:16;;;;;;;5.95;3.95;;;16.00;55.40;;;;;;4256746;27;20051;-74
2021/11/23 05:59:19;;;;;;;4.55;3.13;;;16.00;55.50;;;;;;4269574;27;20058;-66
2021/11/23 06:01:22;;;;;;;6.13;3.53;;;15.90;55.50;;;;;;4266676;27;20043;-77
2021/11/23 06:03:25;;;;;;;5.63;3.53;;;15.90;55.50;;;;;;4242747;27;20064;-76
2021/11/23 06:05:28;;;;;;;5.70;3.63;;;15.90;55.60;;;;;;4251877;27;20120;-67
2021/11/23 06:07:31;;;;;;;8.13;3.95;;;15.90;55.60;;;;;;4260477;27;20092;-78
2021/11/23 06:09:34;;;;;;;5.28;3.83;;;15.80;55.60;;;;;;4267677;27;20050;-69
2021/11/23 06:11:38;;;;;;;5.70;3.80;;;15.80;55.50;;;;;;4270249;27;20103;-78
2021/11/23 06:13:41;;;;;;;5.47;3.88;;;15.80;55.60;;;;;;4258444;27;20055;-77
2021/11/23 06:15:46;;;;;;;5.22;3.72;;;15.80;55.60;;;;;;4269439;27;20047;-76
2021/11/23 06:17:57;;;;;;;5.38;3.75;;;15.70;55.50;;;;;;4261050;27;20058;-78
2021/11/23 06:20:00;;;;;;;6.28;3.97;;;15.70;55.50;;;;;;4267822;27;20118;-77
2021/11/23 06:22:03;;;;;;;7.15;4.10;;;15.70;55.50;;;;;;4268465;27;20046;-72
2021/11/23 06:24:08;;;;;;;7.53;3.63;;;15.60;55.40;;;;;;4260026;27;20046;-68
2021/11/23 06:26:11;;;;;;;4.97;3.80;;;15.60;55.50;;;;;;4270692;27;20058;-72
2021/11/23 06:28:18;;;;;;;7.05;4.15;;;15.60;55.40;;;;;;4257820;27;20051;-73
2021/11/23 06:30:21;;;;;;;6.93;4.35;;;15.60;55.40;;;;;;4268107;27;20063;-75
2021/11/23 06:32:24;;;;;;;6.28;3.90;;;15.50;55.40;;;;;;4252466;27;20047;-69
2021/11/23 06:34:27;;;;;;;9.77;4.45;;;15.50;55.40;;;;;;4246348;28;20052;-73
2021/11/23 06:36:30;;;;;;;6.15;3.78;;;15.50;55.50;;;;;;4254175;27;20096;-76
2021/11/23 06:38:33;;;;;;;6.32;3.60;;;15.50;55.50;;;;;;4265854;27;20043;-77
2021/11/23 06:40:38;;;;;;;6.63;3.90;;;15.50;55.60;;;;;;4255283;27;20736;-68
2021/11/23 06:42:41;;;;;;;8.80;3.75;;;15.40;55.60;;;;;;4255858;27;20123;-69
2021/11/23 06:44:45;;;;;;;6.72;4.10;;;15.40;55.60;;;;;;4256780;27;20531;-71
2021/11/23 06:46:48;;;;;;;5.80;3.80;;;15.40;55.60;;;;;;4268745;27;20649;-77
2021/11/23 06:48:51;;;;;;;5.50;3.80;;;15.40;55.70;;;;;;4261349;27;20088;-70
2021/11/23 06:50:55;;;;;;;5.47;4.07;;;15.40;55.70;;;;;;4270318;27;20058;-71
2021/11/23 06:52:59;;;;;;;5.78;3.38;;;15.30;55.70;;;;;;4268781;27;20047;-77
2021/11/23 06:55:02;;;;;;;6.35;4.10;;;15.30;55.70;;;;;;4258081;27;20051;-77
2021/11/23 06:57:06;;;;;;;6.20;3.63;;;15.30;55.80;;;;;;4271215;27;20339;-78
2021/11/23 06:59:12;;;;;;;6.57;4.03;;;15.30;55.80;;;;;;4267884;27;20058;-77
2021/11/23 07:01:16;;;;;;;5.82;3.83;;;15.30;55.90;;;;;;4268815;27;20046;-78
2021/11/23 07:03:20;;;;;;;;;;;15.20;55.80;;;;;;4268195;27;20054;-77
2021/11/23 07:05:23;;;;;;;6.00;3.85;;;15.20;55.90;;;;;;4262399;27;19914;-77
2021/11/23 07:07:27;;;;;;;7.80;4.13;;;15.20;56.00;;;;;;4271740;27;20058;-74
2021/11/23 07:09:30;;;;;;;7.80;3.78;;;15.20;56.00;;;;;;4259277;27;20062;-74
2021/11/23 07:11:33;;;;;;;4.95;3.45;;;15.20;56.00;;;;;;4269820;27;20207;-78
2021/11/23 07:13:36;;;;;;;6.25;4.00;;;15.20;56.10;;;;;;4251506;27;20051;-76
2021/11/23 07:15:39;;;;;;;7.07;3.53;;;15.20;56.20;;;;;;4261367;27;20046;-78
2021/11/23 07:17:44;;;;;;;6.50;3.97;;;15.10;56.10;;;;;;4270266;27;20280;-78
2021/11/23 07:19:49;;;;;;;7.57;4.55;;;15.10;56.10;;;;;;4261596;27;20111;-70
2021/11/23 07:21:52;;;;;;;6.65;3.63;;;15.10;56.10;;;;;;4270413;27;20047;-78
2021/11/23 07:23:57;;;;;;;6.53;3.83;;;15.10;56.20;;;;;;4268968;27;20047;-77
2021/11/23 07:26:00;;;;;;;4.93;3.63;;;15.10;56.20;;;;;;4268418;27;20050;-77
2021/11/23 07:28:04;;;;;;;7.45;3.15;;;15.00;56.30;;;;;;4271906;27;20111;-65
2021/11/23 07:30:08;;;;;;;7.30;3.70;;;15.10;56.20;;;;;;4271017;27;20099;-75
2021/11/23 07:32:11;;;;;;;6.13;3.73;;;15.00;56.30;;;;;;4267396;27;20055;-76
2021/11/23 07:34:16;;;;;;;5.38;3.33;;;15.00;56.20;;;;;;4266537;27;20047;-71
2021/11/23 07:36:19;;;;;;;5.90;3.65;;;15.00;56.30;;;;;;4256973;27;20042;-72
2021/11/23 07:38:22;;;;;;;7.85;3.78;;;15.00;56.30;;;;;;4272850;27;20351;-71
2021/11/23 07:40:26;;;;;;;7.20;4.13;;;15.00;56.20;;;;;;4267748;27;20046;-70
2021/11/23 07:42:30;;;;;;;5.70;3.97;;;15.00;56.20;;;;;;4268109;27;20047;-65
2021/11/23 07:44:33;;;;;;;7.97;3.90;;;15.00;55.90;;;;;;4247964;27;20044;-76
2021/11/23 07:46:37;;;;;;;8.60;4.32;;;15.00;55.80;;;;;;4271297;27;20069;-72
2021/11/23 07:48:40;;;;;;;7.55;4.53;;;15.00;55.70;;;;;;4262952;27;20108;-68
2021/11/23 07:50:45;;;;;;;6.53;4.40;;;14.90;55.60;;;;;;4260618;27;20114;-64
2021/11/23 07:52:48;;;;;;;6.32;4.22;;;14.90;55.60;;;;;;4266363;27;20055;-70
2021/11/23 07:54:51;;;;;;;7.90;4.70;;;14.90;55.40;;;;;;4271486;27;20421;-71
2021/11/23 07:56:54;;;;;;;6.70;4.60;;;14.90;55.00;;;;;;4261921;27;20046;-73
2021/11/23 07:58:58;;;;;;;6.68;4.35;;;14.90;55.50;;;;;;4272725;27;20115;-73
2021/11/23 08:01:01;;;;;;;7.03;4.55;;;14.90;55.40;;;;;;4267987;27;20099;-69
2021/11/23 08:03:04;;;;;;;15.85;5.97;;;14.90;55.20;;;;;;4265573;27;20615;-65
2021/11/23 08:05:08;;;;;;;7.95;4.70;;;14.90;55.30;;;;;;4267487;27;20055;-66
2021/11/23 08:07:13;;;;;;;7.43;5.07;;;14.90;54.80;;;;;;4264805;27;20099;-65
2021/11/23 08:09:16;;;;;;;8.55;4.90;;;14.90;55.20;;;;;;4273202;27;20058;-71
2021/11/23 08:11:23;;;;;;;10.07;4.72;;;14.90;54.50;;;;;;4269115;27;20099;-69
2021/11/23 08:13:26;;;;;;;8.30;4.68;;;14.90;55.00;;;;;;4274841;27;20117;-71
2021/11/23 08:15:29;;;;;;;5.50;4.32;;;14.90;54.80;;;;;;4271579;27;20054;-72
2021/11/23 08:17:33;;;;;;;12.07;3.97;;;14.90;55.00;;;;;;4262791;27;20235;-71
2021/11/23 08:19:35;;;;;;;11.65;4.63;;;14.90;54.70;;;;;;4272801;27;20107;-68
2021/11/23 08:21:38;;;;;;;9.68;5.25;;;14.90;54.70;;;;;;4265568;27;20281;-69
2021/11/23 08:23:44;;;;;;;12.10;4.90;;;14.90;54.40;;;;;;4267987;27;20331;-70
2021/11/23 08:25:47;;;;;;;11.30;5.00;;;14.90;54.40;;;;;;4272349;27;20429;-69
2021/11/23 08:27:50;;;;;;;11.07;5.15;;;14.90;54.20;;;;;;4261871;27;20088;-68
2021/11/23 08:29:54;;;;;;;17.75;6.45;;;14.90;53.70;;;;;;4271520;27;20054;-67
2021/11/23 08:31:57;;;;;;;7.20;4.60;;;14.90;53.90;;;;;;4263244;27;20051;-66
2021/11/23 08:34:04;;;;;;;7.57;3.80;;;14.90;54.10;;;;;;4267650;27;20046;-68
2021/11/23 08:36:07;;;;;;;9.18;4.50;;;14.90;55.10;;;;;;4269741;27;20059;-71
2021/11/23 08:38:10;;;;;;;15.80;5.07;;;14.90;55.10;;;;;;4272834;27;20043;-69
2021/11/23 08:40:15;;;;;;;7.30;3.83;;;14.90;55.20;;;;;;4272509;27;20050;-69
2021/11/23 08:42:20;;;;;;;9.05;5.22;;;14.90;55.00;;;;;;4265212;27;20272;-70
2021/11/23 08:44:24;;;;;;;9.15;3.97;;;14.90;55.20;;;;;;4267795;27;20051;-67
2021/11/23 08:46:27;;;;;;;8.07;3.85;;;14.90;55.10;;;;;;4268427;27;20487;-69
2021/11/23 08:48:30;;;;;;;11.45;4.60;;;14.90;55.00;;;;;;4266362;27;20054;-68
2021/11/23 08:50:33;;;;;;;11.82;4.55;;;14.90;54.90;;;;;;4264269;27;20618;-70
2021/11/23 08:52:37;;;;;;;10.63;4.38;;;14.90;54.70;;;;;;4261902;27;20055;-67
2021/11/23 08:54:40;;;;;;;7.32;4.03;;;14.90;54.80;;;;;;4268230;27;20054;-70
2021/11/23 08:56:55;;;;;;;10.07;4.35;;;14.90;54.50;;;;;;4266717;27;20151;-68
2021/11/23 08:58:59;;;;;;;21.23;5.22;;;14.90;53.40;;;;;;4260010;27;20114;-70
2021/11/23 09:01:02;;;;;;;8.48;4.20;;;14.90;53.20;;;;;;4249430;27;20039;-67
2021/11/23 09:03:07;;;;;;;9.88;4.75;;;14.90;53.10;;;;;;4262281;27;20043;-67
2021/11/23 09:05:12;;;;;;;7.93;4.00;;;14.90;53.20;;;;;;4265048;27;20546;-72
2021/11/23 09:07:20;;;;;;;;;;;14.80;52.80;;;;;;4256418;27;20047;-69
2021/11/23 09:09:27;;;;;;;8.73;3.95;;;14.90;53.10;;;;;;4260495;27;19916;-68
2021/11/23 09:11:31;;;;;;;7.72;3.78;;;14.90;52.90;;;;;;4259629;27;20235;-69
2021/11/23 09:13:35;;;;;;;5.60;3.55;;;14.80;52.80;;;;;;4263109;27;20062;-68
2021/11/23 09:15:38;;;;;;;9.95;3.60;;;14.80;52.70;;;;;;4264062;27;20070;-70
2021/11/23 09:17:42;;;;;;;6.28;2.83;;;14.80;52.70;;;;;;4261226;27;20429;-71
2021/11/23 09:19:45;;;;;;;6.75;3.00;;;14.80;54.20;;;;;;4259109;27;20479;-72
2021/11/23 09:21:48;;;;;;;7.55;3.03;;;14.90;54.10;;;;;;4241636;27;20122;-70
2021/11/23 09:23:51;;;;;;;5.93;3.10;;;14.90;53.70;;;;;;4259975;27;20051;-71
2021/11/23 09:25:54;;;;;;;7.57;2.65;;;14.90;53.40;;;;;;4260503;27;20047;-70
2021/11/23 09:28:00;;;;;;;7.60;3.00;;;14.90;53.10;;;;;;4260017;27;20055;-70
2021/11/23 09:30:08;;;;;;;5.82;2.55;;;14.90;52.70;;;;;;4240375;27;20044;-69
2021/11/23 09:32:13;;;;;;;5.93;3.03;;;14.90;53.30;;;;;;4260153;27;20047;-71
2021/11/23 09:34:16;;;;;;;5.68;2.78;;;14.90;52.40;;;;;;4260909;27;20055;-71
2021/11/23 09:36:19;;;;;;;4.07;2.40;;;14.90;53.30;;;;;;4261914;27;20047;-71
2021/11/23 09:38:22;;;;;;;7.10;2.63;;;14.90;52.40;;;;;;4238495;27;20047;-68
2021/11/23 09:40:29;;;;;;;7.15;2.30;;;14.90;52.30;;;;;;4262257;27;20088;-71
2021/11/23 09:42:32;;;;;;;6.32;2.35;;;14.90;52.20;;;;;;4258973;27;20055;-66
2021/11/23 09:44:35;;;;;;;11.57;2.75;;;14.90;52.20;;;;;;4255539;27;20047;-68
2021/11/23 09:46:40;;;;;;;8.23;2.92;;;14.90;51.90;;;;;;4261201;27;20269;-69
2021/11/23 09:48:45;;;;;;;6.47;2.15;;;14.90;51.60;;;;;;4263656;27;20091;-69
2021/11/23 09:50:50;;;;;;;9.00;2.30;;;14.90;53.50;;;;;;4263202;27;20400;-67
2021/11/23 09:52:53;;;;;;;7.00;2.28;;;14.90;53.40;;;;;;4266036;27;20042;-67
2021/11/23 09:54:56;;;;;;;6.10;2.38;;;15.00;53.60;;;;;;4262265;27;20112;-70
2021/11/23 09:56:59;;;;;;;5.30;2.30;;;15.00;53.40;;;;;;4265073;27;20047;-71
2021/11/23 09:59:03;;;;;;;5.35;1.98;;;15.00;53.50;;;;;;4264157;27;20051;-70
2021/11/23 10:01:08;;;;;;;7.95;2.75;;;15.00;53.20;;;;;;4262186;27;20039;-69
2021/11/23 10:03:16;;;;;;;7.00;2.13;;;15.10;53.20;;;;;;4260650;27;20130;-70
2021/11/23 10:05:21;;;;;;;12.32;2.70;;;15.10;53.20;;;;;;4260204;27;20047;-70
2021/11/23 10:07:40;;;;;;;5.90;2.72;;;15.10;53.30;;;;;;4259145;27;20107;-70
2021/11/23 10:09:46;;;;;;;8.57;4.22;;;15.10;52.80;;;;;;4266615;27;20035;-72
2021/11/23 10:11:52;;;;;;;8.82;4.40;;;15.10;52.50;;;;;;4242554;27;20043;-72
2021/11/23 10:14:01;;;;;;;9.25;4.15;;;15.10;52.20;;;;;;4268655;27;20054;-70
2021/11/23 10:16:09;;;;;;;10.07;4.25;;;15.10;52.00;;;;;;4263912;27;20039;-70
2021/11/23 10:18:27;;;;;;;9.70;4.70;;;15.10;51.90;;;;;;4238923;27;20328;-68
2021/11/23 10:20:34;;;;;;;8.63;4.10;;;15.10;52.10;;;;;;4257898;27;20050;-70
2021/11/23 10:22:39;;;;;;;6.45;3.30;;;15.10;52.10;;;;;;4258815;27;20059;-70
2021/11/23 10:24:43;;;;;;;6.53;3.25;;;15.10;52.00;;;;;;4261250;27;20122;-69
2021/11/23 10:26:46;;;;;;;6.18;2.75;;;15.10;51.90;;;;;;4264730;27;20054;-67
2021/11/23 10:28:52;;;;;;;12.00;3.25;;;15.10;52.00;;;;;;4263300;27;20047;-67
2021/11/23 10:30:56;;;;;;;6.55;2.60;;;15.10;52.10;;;;;;4264102;27;20116;-67
2021/11/23 10:32:59;;;;;;;5.40;2.50;;;15.10;52.00;;;;;;4263114;27;20411;-69
2021/11/23 10:35:12;;;;;;;4.50;2.00;;;15.10;51.80;;;;;;4263000;27;20115;-71
2021/11/23 10:37:28;;;;;;;4.93;2.10;;;15.20;51.80;;;;;;4263167;27;20101;-71
2021/11/23 10:39:31;;;;;;;8.30;2.65;;;15.10;51.60;;;;;;4266391;27;20099;-69
2021/11/23 10:41:39;;;;;;;3.63;1.85;;;15.10;51.70;;;;;;4268520;27;20350;-72
2021/11/23 10:43:44;;;;;;;3.22;2.05;;;15.10;51.50;;;;;;4265882;27;20043;-67
2021/11/23 10:45:50;;;;;;;7.68;1.80;;;15.10;51.40;;;;;;4246424;27;20419;-71